Time;durP1;ratioP1;P1;durP2;ratioP2;P2;SDS_P1;SDS_P2;PMS_P1;PMS_P2;Temp;Humidity;BMP_temperature;BMP_pressure;BME280_temperature;BME280_humidity;BME280_pressure;Samples;Min_cycle;Max_cycle;Signal;HPM_P1;HPM_P2
2020/12/16 00:01:32;;;;;;;71.82;26.75;;;;;;;9.86;67.37;101510.28;4863748;29;20033;-83
2020/12/16 00:03:58;;;;;;;78.20;26.08;;;;;;;9.85;67.16;101508.50;4840297;29;20025;-82
2020/12/16 00:06:23;;;;;;;59.58;23.52;;;;;;;10.50;64.77;101517.09;4854626;29;20030;-82
2020/12/16 00:08:49;;;;;;;;;;;;;;;10.50;64.88;101517.09;4857694;29;20108;-84
2020/12/16 00:11:14;;;;;;;151.38;25.92;;;;;;;10.03;66.00;101512.41;4849701;29;19962;-85
2020/12/16 00:13:39;;;;;;;166.10;27.50;;;;;;;9.89;66.14;101512.88;4849945;29;20037;-86
2020/12/16 00:16:05;;;;;;;;;;;;;;;9.80;67.33;101515.91;4871319;29;20029;-83
2020/12/16 00:18:31;;;;;;;89.35;24.48;;;;;;;9.70;67.31;101512.63;4853539;29;19920;-82
2020/12/16 00:20:56;;;;;;;132.68;26.70;;;;;;;9.84;66.27;101513.97;4846856;29;20036;-84
2020/12/16 00:23:21;;;;;;;;;;;;;;;9.28;68.70;101506.81;4856014;29;20117;-83
2020/12/16 00:25:47;;;;;;;161.23;27.58;;;;;;;9.58;67.81;101513.03;4837081;29;19916;-83
2020/12/16 00:28:12;;;;;;;186.23;28.67;;;;;;;9.75;66.56;101507.06;4823794;29;20034;-83
2020/12/16 00:30:39;;;;;;;127.35;32.45;;;;;;;9.21;68.53;101506.13;4838626;29;20030;-84
2020/12/16 00:33:04;;;;;;;124.85;33.28;;;;;;;9.38;68.16;101513.69;4840048;29;20021;-84
2020/12/16 00:35:30;;;;;;;89.43;31.83;;;;;;;10.01;66.40;101513.38;4855972;29;20034;-82
2020/12/16 00:37:57;;;;;;;103.18;30.50;;;;;;;9.79;67.01;101513.25;4856162;29;20447;-84
2020/12/16 00:40:23;;;;;;;114.85;32.92;;;;;;;9.81;66.83;101512.25;4840071;29;20057;-84
2020/12/16 00:42:52;;;;;;;84.82;32.05;;;;;;;9.73;67.30;101504.41;4839807;29;20046;-83
2020/12/16 00:45:18;;;;;;;60.80;30.33;;;;;;;9.40;69.19;101514.50;4838728;29;20101;-86
2020/12/16 00:47:43;;;;;;;74.85;31.98;;;;;;;9.58;67.67;101510.31;4836093;29;20066;-84
2020/12/16 00:50:10;;;;;;;73.75;30.60;;;;;;;9.85;66.87;101511.22;4836512;29;20406;-83
2020/12/16 00:52:35;;;;;;;129.73;33.30;;;;;;;9.50;68.01;101507.88;4840026;29;20033;-84
2020/12/16 00:55:01;;;;;;;100.57;32.08;;;;;;;10.03;66.66;101516.94;4839547;29;20055;-84
2020/12/16 00:57:26;;;;;;;;;;;;;;;9.44;68.79;101518.88;4840263;29;20028;-83
2020/12/16 00:59:51;;;;;;;79.28;30.10;;;;;;;9.81;67.35;101523.06;4838586;29;19916;-84
2020/12/16 01:02:17;;;;;;;114.40;33.05;;;;;;;9.39;68.97;101523.53;4839191;29;20034;-85
2020/12/16 01:04:44;;;;;;;86.30;31.70;;;;;;;9.91;67.25;101529.06;4838982;29;20033;-84
2020/12/16 01:07:09;;;;;;;96.60;32.65;;;;;;;9.84;67.13;101535.59;4840623;29;20030;-84
2020/12/16 01:09:35;;;;;;;110.55;32.47;;;;;;;9.62;67.75;101533.63;4841504;29;20026;-85
2020/12/16 01:12:00;;;;;;;91.63;31.38;;;;;;;9.39;68.38;101532.53;4857187;29;20049;-85
2020/12/16 01:14:26;;;;;;;139.80;31.38;;;;;;;9.62;67.41;101539.00;4821056;29;20050;-86
2020/12/16 01:16:51;;;;;;;215.20;34.92;;;;;;;9.43;67.84;101546.81;4835664;29;20401;-86
2020/12/16 01:19:16;;;;;;;110.22;29.00;;;;;;;10.04;65.96;101543.03;4835188;29;20057;-84
2020/12/16 01:21:42;;;;;;;;;;;;;;;9.33;68.33;101548.03;4835297;29;20030;-83
2020/12/16 01:24:07;;;;;;;145.00;32.03;;;;;;;8.82;70.02;101539.66;4851184;29;19912;-84
2020/12/16 01:26:40;;;;;;;155.30;30.08;;;;;;;9.30;68.91;101535.53;4834572;29;20137;-84
2020/12/16 01:29:08;;;;;;;208.18;31.05;;;;;;;9.56;67.56;101547.31;4835081;29;20026;-83
2020/12/16 01:31:41;;;;;;;222.65;34.33;;;;;;;9.42;67.71;101542.38;4834269;29;20113;-83
2020/12/16 01:34:07;;;;;;;250.93;33.38;;;;;;;9.04;69.23;101555.19;4851615;29;20485;-83
2020/12/16 01:36:37;;;;;;;109.93;26.20;;;;;;;9.46;68.03;101549.41;4834008;29;20041;-84
2020/12/16 01:39:02;;;;;;;230.93;29.85;;;;;;;8.71;70.10;101560.69;4834889;29;20041;-85
2020/12/16 01:41:28;;;;;;;224.02;30.60;;;;;;;9.02;69.86;101557.06;4838946;29;20034;-82
2020/12/16 01:43:53;;;;;;;226.10;32.07;;;;;;;9.52;67.67;101554.63;4856788;29;20113;-80
2020/12/16 01:46:18;;;;;;;199.23;29.65;;;;;;;9.38;68.26;101555.06;4820655;29;20303;-84
2020/12/16 01:48:44;;;;;;;273.55;32.45;;;;;;;9.17;68.75;101550.34;4834677;29;20452;-84
2020/12/16 01:51:16;;;;;;;254.90;30.75;;;;;;;9.53;67.22;101545.59;4834248;29;20033;-84
2020/12/16 01:53:45;;;;;;;345.80;34.75;;;;;;;9.21;68.35;101544.78;4834875;29;20061;-85
2020/12/16 01:56:12;;;;;;;214.20;32.60;;;;;;;9.32;67.75;101546.28;4818851;29;20034;-84
2020/12/16 01:58:41;;;;;;;217.55;32.05;;;;;;;9.23;68.67;101548.31;4834313;29;20089;-83
2020/12/16 02:01:07;;;;;;;162.65;32.33;;;;;;;9.23;68.95;101542.91;4834211;29;20089;-84
2020/12/16 02:03:36;;;;;;;189.95;35.17;;;;;;;9.14;68.92;101542.31;4833994;29;20053;-84
2020/12/16 02:06:06;;;;;;;200.52;36.30;;;;;;;9.03;70.17;101529.16;4850322;29;20112;-83
2020/12/16 02:08:35;;;;;;;209.55;34.13;;;;;;;9.05;69.25;101538.09;4850295;29;20029;-84
2020/12/16 02:11:02;;;;;;;102.88;33.35;;;;;;;9.12;69.41;101544.16;4850277;29;20042;-85
2020/12/16 02:13:27;;;;;;;90.82;30.08;;;;;;;9.90;65.88;101541.69;4834062;29;20030;-86
2020/12/16 02:15:53;;;;;;;157.70;36.97;;;;;;;9.41;67.91;101551.38;4850169;29;20058;-85
2020/12/16 02:18:18;;;;;;;167.95;37.83;;;;;;;9.29;68.93;101547.25;4849963;29;20366;-83
2020/12/16 02:20:43;;;;;;;94.85;31.85;;;;;;;9.44;67.60;101551.28;4833377;29;20033;-83
2020/12/16 02:23:17;;;;;;;155.93;37.45;;;;;;;9.15;68.91;101546.78;4850337;29;20059;-84
2020/12/16 02:25:43;;;;;;;206.75;40.20;;;;;;;9.43;68.49;101545.94;4833233;29;20034;-84
2020/12/16 02:28:08;;;;;;;193.20;39.83;;;;;;;9.45;68.04;101542.25;4833606;29;20045;-84
2020/12/16 02:30:33;;;;;;;254.05;42.03;;;;;;;9.42;67.99;101549.56;4833540;29;20026;-86
2020/12/16 02:32:59;;;;;;;;;;;;;;;9.23;68.94;101559.13;4833805;29;20026;-87
2020/12/16 02:35:24;;;;;;;205.23;38.33;;;;;;;9.53;67.92;101542.88;4833400;29;19916;-84
2020/12/16 02:37:50;;;;;;;139.85;35.90;;;;;;;9.54;66.96;101547.38;4833494;29;20026;-83
2020/12/16 02:40:16;;;;;;;215.30;40.47;;;;;;;9.25;68.58;101548.28;4833119;29;20030;-84
2020/12/16 02:42:41;;;;;;;188.05;35.55;;;;;;;9.21;68.65;101552.00;4849344;29;20476;-86
2020/12/16 02:45:06;;;;;;;;;;;;;;;9.50;67.84;101548.41;4850243;29;20026;-84
2020/12/16 02:47:32;;;;;;;168.50;33.65;;;;;;;9.65;67.07;101548.84;4849957;29;19916;-83
2020/12/16 02:49:57;;;;;;;165.57;34.58;;;;;;;9.92;66.33;101553.31;4833284;29;20026;-86
2020/12/16 02:52:22;;;;;;;188.18;35.55;;;;;;;9.67;66.94;101552.38;4849673;29;20033;-84
2020/12/16 02:54:48;;;;;;;194.00;37.97;;;;;;;9.45;67.96;101553.06;4849462;29;20034;-83
2020/12/16 02:57:13;;;;;;;223.85;39.38;;;;;;;9.16;68.60;101560.25;4849151;29;20030;-85
2020/12/16 02:59:39;;;;;;;196.35;41.10;;;;;;;8.85;70.47;101562.97;4832873;29;20132;-83
2020/12/16 03:02:04;;;;;;;147.15;42.33;;;;;;;9.10;69.34;101565.81;4833285;29;20025;-84
2020/12/16 03:04:29;;;;;;;135.38;40.15;;;;;;;9.43;67.83;101559.44;4849449;29;20033;-83
2020/12/16 03:06:57;;;;;;;223.90;40.53;;;;;;;9.66;67.32;101565.00;4849593;29;20468;-86
2020/12/16 03:09:26;;;;;;;244.40;38.80;;;;;;;9.31;67.94;101566.09;4849387;29;20034;-83
2020/12/16 03:11:55;;;;;;;227.70;38.42;;;;;;;9.37;67.64;101557.81;4849342;29;20045;-86
2020/12/16 03:14:21;;;;;;;386.50;42.95;;;;;;;8.81;68.89;101570.25;4849242;29;20065;-85
2020/12/16 03:16:47;;;;;;;;;;;;;;;9.13;68.04;101563.03;4833110;29;20030;-86
2020/12/16 03:19:13;;;;;;;277.42;37.85;;;;;;;8.61;69.75;101560.03;4848693;29;19917;-84
2020/12/16 03:21:38;;;;;;;265.55;38.28;;;;;;;8.84;68.95;101556.66;4849100;29;20037;-85
2020/12/16 03:24:04;;;;;;;;;;;;;;;8.88;69.03;101552.09;4832271;29;20030;-84
2020/12/16 03:26:29;;;;;;;225.10;34.17;;;;;;;9.32;66.87;101543.56;4848636;29;19917;-84
2020/12/16 03:28:54;;;;;;;;;;;;;;;9.23;67.85;101553.72;4848431;29;20026;-84
2020/12/16 03:31:20;;;;;;;309.70;38.90;;;;;;;8.45;69.83;101556.88;4848503;29;20467;-85
2020/12/16 03:33:46;;;;;;;305.85;37.97;;;;;;;7.89;71.98;101560.09;4832648;29;20125;-82
2020/12/16 03:36:17;;;;;;;298.23;40.90;;;;;;;8.60;69.08;101550.16;4839212;29;20034;-83
2020/12/16 03:38:43;;;;;;;412.08;41.50;;;;;;;8.90;68.10;101546.66;4834651;29;20089;-84
2020/12/16 03:41:09;;;;;;;314.23;40.10;;;;;;;8.54;69.48;101544.94;4832159;29;20042;-85
2020/12/16 03:43:35;;;;;;;331.73;41.17;;;;;;;8.55;69.66;101548.53;4835354;29;20045;-82
2020/12/16 03:46:00;;;;;;;294.27;44.17;;;;;;;8.56;69.95;101544.91;4862661;29;20037;-83
2020/12/16 03:48:26;;;;;;;330.45;47.00;;;;;;;8.71;68.81;101548.97;4846525;29;20044;-82
2020/12/16 03:50:52;;;;;;;274.67;46.92;;;;;;;8.54;70.78;101558.44;4850178;29;20034;-83
2020/12/16 03:53:17;;;;;;;199.98;41.90;;;;;;;9.38;67.74;101555.06;4828437;29;20032;-83
2020/12/16 03:55:42;;;;;;;;;;;;;;;9.10;67.63;101568.50;4828804;29;20036;-83
2020/12/16 03:58:08;;;;;;;254.90;39.13;;;;;;;8.73;69.00;101560.63;4845002;29;19968;-84
2020/12/16 04:00:33;;;;;;;379.83;46.70;;;;;;;9.34;67.50;101547.09;4845273;29;20038;-84
2020/12/16 04:02:59;;;;;;;293.80;47.20;;;;;;;8.46;69.91;101549.69;4844120;29;20137;-84
2020/12/16 04:05:24;;;;;;;256.98;47.92;;;;;;;8.93;69.01;101550.13;4843427;29;20499;-82
2020/12/16 04:07:49;;;;;;;224.40;42.28;;;;;;;8.38;70.54;101562.44;4861687;29;20042;-83
2020/12/16 04:10:15;;;;;;;;;;;;;;;8.89;69.30;101564.63;4846629;29;20044;-83
2020/12/16 04:12:40;;;;;;;260.52;47.72;;;;;;;8.29;71.43;101555.50;4846374;29;20279;-82
2020/12/16 04:15:05;;;;;;;247.70;44.30;;;;;;;8.35;71.09;101544.56;4861537;29;20129;-83
2020/12/16 04:17:35;;;;;;;327.40;48.22;;;;;;;8.33;71.80;101549.06;4846355;29;20030;-83
2020/12/16 04:20:03;;;;;;;346.33;51.00;;;;;;;8.44;71.06;101552.41;4846303;29;20034;-84
2020/12/16 04:22:29;;;;;;;336.02;45.15;;;;;;;8.83;69.30;101548.63;4846122;29;20496;-83
2020/12/16 04:24:55;;;;;;;304.75;46.28;;;;;;;8.62;70.78;101560.91;4862707;29;20030;-83
2020/12/16 04:27:20;;;;;;;436.23;54.28;;;;;;;8.39;71.67;101551.59;4846060;29;20021;-83
2020/12/16 04:29:46;;;;;;;433.05;56.92;;;;;;;8.33;72.21;101559.88;4845455;29;20025;-82
2020/12/16 04:32:14;;;;;;;501.73;60.35;;;;;;;7.99;74.36;101574.22;4862429;29;20412;-84
2020/12/16 04:34:40;;;;;;;445.35;58.88;;;;;;;8.59;71.10;101561.00;4861235;29;20038;-83
2020/12/16 04:37:05;;;;;;;373.77;51.80;;;;;;;7.89;74.42;101575.38;4846064;29;20029;-82
2020/12/16 04:39:31;;;;;;;453.80;63.65;;;;;;;8.26;73.12;101559.16;4845783;29;20101;-83
2020/12/16 04:41:56;;;;;;;366.13;50.97;;;;;;;8.33;71.96;101559.88;4844993;29;20061;-83
2020/12/16 04:44:22;;;;;;;404.65;55.53;;;;;;;8.19;73.20;101560.22;4862509;29;20388;-82
2020/12/16 04:46:48;;;;;;;416.75;55.13;;;;;;;8.44;71.85;101555.13;4862490;29;20057;-84
2020/12/16 04:49:13;;;;;;;497.20;55.78;;;;;;;8.38;72.97;101554.34;4845822;29;20113;-83
2020/12/16 04:51:42;;;;;;;;;;;;;;;8.48;71.86;101559.50;4846123;29;20037;-83
2020/12/16 04:54:08;;;;;;;479.10;54.65;;;;;;;8.10;73.65;101564.03;4862072;29;19922;-83
2020/12/16 04:56:35;;;;;;;545.85;59.35;;;;;;;8.90;70.57;101560.13;4862081;29;20029;-83
2020/12/16 04:59:00;;;;;;;430.42;51.95;;;;;;;8.54;73.02;101568.34;4860863;29;20045;-83
2020/12/16 05:01:26;;;;;;;482.90;57.83;;;;;;;8.57;71.89;101568.25;4846070;29;20030;-84
2020/12/16 05:03:51;;;;;;;449.92;55.50;;;;;;;8.51;73.25;101564.81;4846104;29;20037;-83
2020/12/16 05:06:32;;;;;;;;;;;;;;;9.08;70.81;101569.50;4861464;29;20029;-83
2020/12/16 05:09:16;;;;;;;322.30;44.38;;;;;;;9.15;71.21;101561.19;4845983;29;20375;-82
2020/12/16 05:11:47;;;;;;;368.67;48.50;;;;;;;9.08;70.59;101567.69;4862661;29;20041;-83
2020/12/16 05:14:23;;;;;;;261.20;44.70;;;;;;;8.86;71.50;101575.50;4862619;29;20034;-83
2020/12/16 05:16:56;;;;;;;357.77;47.85;;;;;;;8.71;72.03;101579.56;4846068;29;20598;-84
2020/12/16 05:19:41;;;;;;;320.20;43.30;;;;;;;8.91;71.77;101578.06;4863041;29;20101;-83
2020/12/16 05:22:10;;;;;;;301.60;42.38;;;;;;;9.08;70.78;101567.69;4845772;29;20057;-84
2020/12/16 05:24:36;;;;;;;294.63;44.35;;;;;;;9.35;70.37;101563.25;4862498;29;20060;-83
2020/12/16 05:27:02;;;;;;;267.67;46.03;;;;;;;8.69;72.99;101573.31;4845488;29;20112;-83
2020/12/16 05:29:27;;;;;;;;;;;;;;;8.30;73.68;101576.13;4863901;29;20055;-82
2020/12/16 05:31:53;;;;;;;283.58;35.17;;;;;;;8.22;73.87;101573.63;4870693;29;19965;-84
2020/12/16 05:34:18;;;;;;;264.10;36.25;;;;;;;8.06;74.02;101578.53;4848438;29;20037;-83
2020/12/16 05:36:43;;;;;;;229.02;36.88;;;;;;;8.21;73.50;101581.75;4846406;29;20033;-84
2020/12/16 05:39:10;;;;;;;273.17;40.33;;;;;;;8.80;71.85;101576.59;4846332;29;20178;-84
2020/12/16 05:41:36;;;;;;;261.60;36.88;;;;;;;8.37;72.79;101571.47;4862731;29;20045;-84
2020/12/16 05:44:30;;;;;;;257.02;38.72;;;;;;;8.34;72.92;101581.38;4845945;29;20034;-85
2020/12/16 05:46:56;;;;;;;202.70;37.17;;;;;;;8.47;72.26;101582.00;4830238;29;20048;-83
2020/12/16 05:49:25;;;;;;;209.75;37.92;;;;;;;8.85;71.49;101577.34;4863485;29;20037;-84
2020/12/16 05:51:59;;;;;;;302.80;40.28;;;;;;;8.18;74.34;101582.72;4862887;29;20492;-84
2020/12/16 05:54:24;;;;;;;240.70;38.53;;;;;;;8.27;73.47;101589.69;4849469;29;20032;-84
2020/12/16 05:57:14;;;;;;;216.65;38.30;;;;;;;8.92;71.55;101574.47;4850173;29;20041;-84
2020/12/16 05:59:41;;;;;;;297.50;39.30;;;;;;;8.44;72.11;101579.38;4865109;29;20041;-84
2020/12/16 06:02:07;;;;;;;234.90;36.10;;;;;;;8.98;71.23;101574.28;4849396;29;20536;-85
2020/12/16 06:04:33;;;;;;;;;;;;;;;8.90;71.71;101584.44;4865854;29;20055;-84
2020/12/16 06:06:59;;;;;;;216.17;32.23;;;;;;;9.10;71.03;101578.44;4849273;29;20343;-83
2020/12/16 06:09:24;;;;;;;228.55;33.50;;;;;;;9.33;69.85;101580.44;4848896;29;20049;-83
2020/12/16 06:11:54;;;;;;;225.98;34.85;;;;;;;9.86;67.96;101577.00;4865633;29;20108;-84
2020/12/16 06:14:21;;;;;;;197.40;31.88;;;;;;;9.13;71.02;101581.91;4865388;29;20101;-84
2020/12/16 06:16:47;;;;;;;257.42;32.65;;;;;;;8.92;71.15;101579.84;4849269;29;20476;-83
2020/12/16 06:19:25;;;;;;;169.57;30.58;;;;;;;9.00;71.82;101589.50;4864296;29;20029;-83
2020/12/16 06:21:55;;;;;;;220.50;35.10;;;;;;;9.25;70.98;101583.38;4849060;29;20365;-84
2020/12/16 06:24:27;;;;;;;214.02;35.13;;;;;;;9.16;71.53;101571.06;4865355;29;20392;-83
2020/12/16 06:27:02;;;;;;;210.07;35.47;;;;;;;9.61;69.20;101575.06;4848585;29;20113;-84
2020/12/16 06:29:30;;;;;;;213.30;32.72;;;;;;;9.24;70.64;101573.53;4848826;29;20037;-83
2020/12/16 06:32:01;;;;;;;292.02;37.05;;;;;;;9.22;71.12;101573.56;4853750;29;20036;-83
2020/12/16 06:34:28;;;;;;;220.50;34.88;;;;;;;9.63;69.85;101583.13;4830075;29;20038;-83
2020/12/16 06:36:55;;;;;;;222.18;34.50;;;;;;;9.42;70.54;101577.47;4845140;29;20033;-84
2020/12/16 06:39:22;;;;;;;220.57;35.95;;;;;;;9.24;71.11;101584.31;4864004;29;20120;-85
2020/12/16 06:41:59;;;;;;;247.65;38.40;;;;;;;9.23;71.32;101585.25;4838758;29;20408;-84
2020/12/16 06:44:25;;;;;;;198.55;36.92;;;;;;;9.16;71.38;101579.16;4846345;29;20116;-83
2020/12/16 06:46:54;;;;;;;176.00;32.58;;;;;;;9.68;70.27;101583.88;4829866;29;20113;-84
2020/12/16 06:49:23;;;;;;;172.07;33.30;;;;;;;9.99;68.96;101574.75;4829416;29;20473;-84
2020/12/16 06:52:05;;;;;;;206.88;34.47;;;;;;;9.18;71.72;101577.28;4829320;29;20389;-83
2020/12/16 06:54:47;;;;;;;215.93;34.70;;;;;;;9.52;70.57;101562.72;4844066;29;20030;-83
2020/12/16 06:57:15;;;;;;;161.73;31.08;;;;;;;8.93;73.38;101576.25;4829781;29;20030;-83
2020/12/16 06:59:42;;;;;;;191.40;37.65;;;;;;;9.57;70.88;101571.59;4829883;29;20022;-82
2020/12/16 07:02:11;;;;;;;;;;;;;;;9.06;73.94;101577.66;4846565;29;20034;-83
2020/12/16 07:04:37;;;;;;;184.43;34.38;;;;;;;8.95;72.92;101583.38;4843956;29;19916;-84
2020/12/16 07:07:02;;;;;;;172.48;33.63;;;;;;;9.64;70.40;101574.97;4843820;29;20455;-83
2020/12/16 07:09:32;;;;;;;;;;;;;;;9.74;70.45;101579.13;4831285;29;20642;-83
2020/12/16 07:11:58;;;;;;;129.10;30.40;;;;;;;9.24;72.48;101589.72;4854951;29;19921;-83
2020/12/16 07:14:34;;;;;;;148.70;31.23;;;;;;;9.02;73.02;101581.38;4827194;29;20035;-83
2020/12/16 07:17:10;;;;;;;145.02;30.67;;;;;;;9.03;72.99;101596.63;4827219;29;20077;-83
2020/12/16 07:19:36;;;;;;;127.82;31.10;;;;;;;9.81;70.81;101578.94;4827338;29;20026;-82
2020/12/16 07:22:20;;;;;;;148.65;31.20;;;;;;;9.51;71.31;101578.97;4843403;29;20025;-82
2020/12/16 07:24:53;;;;;;;143.50;29.58;;;;;;;9.40;71.85;101588.31;4843952;29;20037;-85
2020/12/16 07:27:20;;;;;;;145.32;28.75;;;;;;;9.50;71.48;101588.91;4848744;29;20030;-82
2020/12/16 07:29:56;;;;;;;140.73;29.20;;;;;;;8.87;73.73;101596.19;4829374;29;20087;-83
2020/12/16 07:32:22;;;;;;;129.38;28.77;;;;;;;8.92;73.48;101593.34;4845376;29;20054;-88
2020/12/16 07:34:49;;;;;;;129.98;29.85;;;;;;;9.63;71.52;101580.41;4827504;29;20137;-84
2020/12/16 07:37:17;;;;;;;125.43;29.30;;;;;;;9.26;72.25;101581.56;4843657;29;20381;-83
2020/12/16 07:39:56;;;;;;;125.63;30.75;;;;;;;9.27;72.00;101586.03;4826721;29;20030;-83
2020/12/16 07:42:33;;;;;;;119.03;29.42;;;;;;;9.01;73.08;101582.28;4843226;29;20061;-87
2020/12/16 07:45:02;;;;;;;119.75;31.63;;;;;;;9.25;72.83;101569.88;4842886;29;20481;-85
2020/12/16 07:47:27;;;;;;;128.88;29.45;;;;;;;9.20;73.02;101574.53;4833793;29;20072;-85
2020/12/16 07:49:54;;;;;;;122.35;30.25;;;;;;;9.30;72.63;101580.53;4851618;29;20515;-85
2020/12/16 07:52:28;;;;;;;105.97;27.58;;;;;;;9.40;72.00;101582.00;4826976;29;20030;-86
2020/12/16 07:54:54;;;;;;;135.70;29.70;;;;;;;9.65;71.08;101573.16;4831932;29;20161;-85
2020/12/16 07:57:30;;;;;;;118.97;32.03;;;;;;;9.53;71.89;101585.25;4835574;29;20376;-84
2020/12/16 07:59:56;;;;;;;139.63;31.35;;;;;;;9.57;71.11;101592.28;4833131;29;20391;-83
2020/12/16 08:02:21;;;;;;;112.55;32.38;;;;;;;9.85;70.23;101599.53;4830044;29;20030;-85
2020/12/16 08:04:55;;;;;;;115.10;28.45;;;;;;;9.63;71.13;101588.50;4834771;29;20029;-86
2020/12/16 08:07:20;;;;;;;99.68;30.20;;;;;;;9.70;70.84;101588.28;4833220;29;20034;-84
2020/12/16 08:10:07;;;;;;;100.63;30.13;;;;;;;9.53;71.62;101587.94;4841123;29;20158;-83
2020/12/16 08:12:38;;;;;;;105.78;31.00;;;;;;;9.73;71.27;101590.00;4824380;29;20121;-84
2020/12/16 08:15:17;;;;;;;93.15;29.52;;;;;;;9.39;72.00;101601.84;4845991;29;20053;-83
2020/12/16 08:17:45;;;;;;;97.35;29.33;;;;;;;9.56;71.52;101604.91;4844893;29;20112;-82
2020/12/16 08:20:12;;;;;;;92.05;30.00;;;;;;;10.06;69.49;101593.41;4856239;29;20091;-82
2020/12/16 08:22:38;;;;;;;89.10;28.77;;;;;;;10.49;68.36;101587.50;4851934;29;20029;-83
2020/12/16 08:25:08;;;;;;;87.47;30.80;;;;;;;10.36;68.31;101585.22;4860426;29;20077;-85
2020/12/16 08:27:39;;;;;;;80.80;28.48;;;;;;;10.56;68.41;101583.63;4879356;29;20060;-83
2020/12/16 08:30:06;;;;;;;80.53;28.25;;;;;;;10.29;68.80;101586.34;4879099;29;20029;-82
2020/12/16 08:32:41;;;;;;;82.40;29.38;;;;;;;10.74;68.49;101585.66;4862236;29;20036;-81
2020/12/16 08:35:16;;;;;;;67.30;27.90;;;;;;;10.02;70.05;101590.84;4879099;29;20116;-82
2020/12/16 08:37:45;;;;;;;79.43;26.60;;;;;;;10.29;68.98;101598.03;4879080;29;20033;-82
2020/12/16 08:40:12;;;;;;;76.80;28.80;;;;;;;10.15;69.68;101603.03;4878926;29;20104;-82
2020/12/16 08:42:37;;;;;;;66.43;26.63;;;;;;;10.13;70.01;101596.81;4878423;29;20060;-83
2020/12/16 08:45:06;;;;;;;68.85;25.90;;;;;;;11.02;66.87;101598.22;4876778;29;20033;-82
2020/12/16 08:47:32;;;;;;;68.82;26.88;;;;;;;10.53;68.22;101598.16;4842682;29;20517;-83
2020/12/16 08:49:58;;;;;;;66.35;25.42;;;;;;;10.50;68.76;101595.56;4853993;29;20022;-82
2020/12/16 08:52:23;;;;;;;74.72;27.30;;;;;;;10.72;67.69;101594.78;4838613;29;20041;-84
2020/12/16 08:54:48;;;;;;;70.05;28.55;;;;;;;10.64;67.49;101595.06;4860209;29;20034;-85
2020/12/16 08:57:18;;;;;;;82.50;35.85;;;;;;;10.71;67.18;101595.72;4843682;29;20026;-83
2020/12/16 08:59:44;;;;;;;90.82;35.58;;;;;;;10.56;68.09;101595.34;4860373;29;20461;-84
2020/12/16 09:02:10;;;;;;;110.03;53.85;;;;;;;10.11;69.53;101594.16;4860151;29;20029;-83
2020/12/16 09:04:36;;;;;;;;;;;;;;;10.25;68.85;101593.69;4861169;29;20022;-84
2020/12/16 09:07:07;;;;;;;81.65;30.63;;;;;;;10.28;69.12;101590.88;4860941;29;20010;-86
2020/12/16 09:09:40;;;;;;;77.68;27.88;;;;;;;10.18;69.10;101586.69;4861034;29;20036;-82
2020/12/16 09:12:17;;;;;;;70.43;27.23;;;;;;;11.04;66.84;101588.19;4842213;29;20110;-81
2020/12/16 09:14:56;;;;;;;68.72;26.05;;;;;;;10.71;67.72;101602.03;4853874;29;20066;-83
2020/12/16 09:17:23;;;;;;;65.07;26.33;;;;;;;11.22;66.16;101596.53;4858972;29;20104;-83
2020/12/16 09:19:48;;;;;;;71.18;27.95;;;;;;;10.70;68.05;101612.91;4849678;29;20101;-84
2020/12/16 09:22:13;;;;;;;65.85;27.65;;;;;;;10.84;67.50;101613.31;4844010;29;20116;-82
2020/12/16 09:24:39;;;;;;;66.97;26.02;;;;;;;10.63;67.94;101621.25;4859821;29;20033;-84
2020/12/16 09:27:07;;;;;;;64.13;27.63;;;;;;;10.38;69.32;101626.63;4861861;29;20034;-81
2020/12/16 09:29:32;;;;;;;62.40;27.35;;;;;;;10.52;68.47;101631.53;4859466;29;20033;-81
2020/12/16 09:32:12;;;;;;;58.28;26.13;;;;;;;10.56;68.62;101630.50;4844913;29;20108;-83
2020/12/16 09:34:48;;;;;;;59.97;26.90;;;;;;;10.84;66.97;101624.13;4842929;29;20030;-84
2020/12/16 09:37:16;;;;;;;58.93;26.10;;;;;;;10.67;67.32;101626.53;4863278;29;20624;-86
2020/12/16 09:42:09;;;;;;;49.97;24.83;;;;;;;10.13;69.71;101625.63;4862775;29;20057;-82
2020/12/16 09:44:34;;;;;;;55.17;26.17;;;;;;;10.39;68.03;101625.69;4862705;29;20337;-82
2020/12/16 09:47:16;;;;;;;47.75;24.73;;;;;;;10.42;68.91;101612.06;4846022;29;20120;-82
2020/12/16 09:49:44;;;;;;;47.65;25.05;;;;;;;10.27;68.35;101612.56;4845187;29;20064;-82
2020/12/16 09:52:29;;;;;;;63.90;28.60;;;;;;;11.01;66.66;101614.50;4846252;29;20041;-82
2020/12/16 09:54:55;;;;;;;63.25;27.95;;;;;;;10.33;67.59;101623.19;4846161;29;20030;-82
2020/12/16 09:57:21;;;;;;;59.38;27.23;;;;;;;10.48;67.54;101621.78;4845471;29;20465;-82
2020/12/16 09:59:47;;;;;;;56.25;27.13;;;;;;;11.38;64.26;101613.97;4845762;29;20037;-81
2020/12/16 10:02:14;;;;;;;58.45;26.65;;;;;;;10.32;67.49;101615.09;4845983;29;20041;-81
2020/12/16 10:04:40;;;;;;;61.63;28.75;;;;;;;10.83;66.40;101611.53;4845886;29;20030;-82
2020/12/16 10:07:05;;;;;;;67.47;28.77;;;;;;;10.69;66.23;101606.63;4861816;29;20124;-82
2020/12/16 10:09:35;;;;;;;;;;;;;;;10.13;68.01;101609.41;4860767;29;20025;-82
2020/12/16 10:12:01;;;;;;;59.22;26.83;;;;;;;9.86;68.54;101599.47;4845870;29;19923;-81
2020/12/16 10:14:26;;;;;;;53.88;25.67;;;;;;;10.31;67.94;101591.69;4845581;29;20025;-82
2020/12/16 10:16:52;;;;;;;51.20;25.42;;;;;;;10.95;66.14;101604.78;4845378;29;20037;-82
2020/12/16 10:19:17;;;;;;;46.38;23.75;;;;;;;10.78;66.00;101600.00;4845848;29;20026;-82
2020/12/16 10:21:46;;;;;;;;;;;;;;;10.53;66.94;101602.69;4847199;29;20044;-82
2020/12/16 10:24:11;;;;;;;34.90;20.77;;;;;;;11.27;64.21;101599.97;4845537;29;20298;-83
2020/12/16 10:26:37;;;;;;;36.42;18.77;;;;;;;10.57;66.07;101596.25;4840166;29;20030;-82
2020/12/16 10:29:02;;;;;;;35.13;21.15;;;;;;;11.05;65.55;101599.88;4851006;29;20052;-84
2020/12/16 10:31:28;;;;;;;33.35;19.63;;;;;;;11.10;65.45;101590.66;4833683;29;20025;-83
2020/12/16 10:33:53;;;;;;;30.17;18.58;;;;;;;11.28;64.36;101585.50;4830086;29;20110;-83
2020/12/16 10:36:18;;;;;;;29.90;17.35;;;;;;;11.63;64.03;101575.97;4846626;29;20045;-83
2020/12/16 10:38:44;;;;;;;26.55;16.88;;;;;;;11.47;64.63;101573.00;4828957;29;20166;-84
2020/12/16 10:41:11;;;;;;;21.83;15.90;;;;;;;12.08;62.86;101579.59;4849441;29;20090;-85
2020/12/16 10:43:37;;;;;;;27.50;16.42;;;;;;;12.50;62.22;101585.94;4851398;29;20404;-84
2020/12/16 10:46:06;;;;;;;;;;;;;;;12.03;63.77;101585.22;4832178;29;20162;-82
2020/12/16 10:48:31;;;;;;;24.83;14.13;;;;;;;12.17;63.27;101581.03;4852871;29;19968;-82
2020/12/16 10:50:56;;;;;;;19.83;12.63;;;;;;;11.85;63.98;101581.41;4850043;29;20105;-83
2020/12/16 10:53:22;;;;;;;;;;;;;;;12.48;62.10;101571.56;4836621;29;20037;-83
2020/12/16 10:55:48;;;;;;;18.75;12.15;;;;;;;12.76;61.58;101555.78;4835254;29;20370;-84
2020/12/16 10:58:14;;;;;;;15.07;10.77;;;;;;;12.77;61.10;101551.22;4834011;29;20037;-83
2020/12/16 11:00:39;;;;;;;;;;;;;;;12.43;62.42;101541.03;4849256;29;20888;-86
2020/12/16 11:03:04;;;;;;;15.05;10.95;;;;;;;12.71;61.85;101529.78;4852951;29;19988;-84
2020/12/16 11:05:30;;;;;;;;;;;;;;;13.22;60.80;101527.44;4854973;29;20034;-82
2020/12/16 11:07:55;;;;;;;15.85;10.75;;;;;;;12.29;62.26;101526.25;4850985;29;19928;-83
2020/12/16 11:10:20;;;;;;;;;;;;;;;12.66;62.27;101524.56;4852921;29;20074;-83
2020/12/16 11:12:46;;;;;;;19.35;10.57;;;;;;;13.10;61.70;101523.47;4854662;29;20025;-84
2020/12/16 11:15:11;;;;;;;;;;;;;;;13.18;60.93;101509.50;4833805;29;20369;-83
2020/12/16 11:17:36;;;;;;;16.02;10.68;;;;;;;12.96;62.08;101518.69;4834597;29;19916;-86
2020/12/16 11:20:01;;;;;;;;;;;;;;;13.32;60.13;101520.63;4836287;29;20154;-84
2020/12/16 11:22:27;;;;;;;13.73;9.65;;;;;;;13.15;61.45;101506.94;4854827;29;20003;-84
2020/12/16 11:24:53;;;;;;;12.95;9.25;;;;;;;12.83;61.81;101510.25;4851763;29;20038;-82